Time;durP1;ratioP1;P1;durP2;ratioP2;P2;SDS_P1;SDS_P2;PMS_P1;PMS_P2;Temp;Humidity;BMP_temperature;BMP_pressure;BME280_temperature;BME280_humidity;BME280_pressure;Samples;Min_cycle;Max_cycle;Signal;HPM_P1;HPM_P2
2022/01/17 00:00:26;;;;;;;33.42;20.42;;;;;;;5.21;64.27;99730.44;5112271;28;20064;-80
2022/01/17 00:02:54;;;;;;;28.08;14.15;;;;;;;5.24;64.20;99715.38;5109875;28;20058;-77
2022/01/17 00:05:21;;;;;;;38.45;21.20;;;;;;;5.23;64.23;99705.81;5109384;28;20083;-77
2022/01/17 00:07:48;;;;;;;31.02;18.48;;;;;;;5.27;64.08;99711.72;5109636;28;20055;-77
2022/01/17 00:10:18;;;;;;;41.00;22.92;;;;;;;5.28;64.05;99716.03;5110685;28;20093;-77
2022/01/17 00:12:51;;;;;;;31.70;15.88;;;;;;;5.30;64.15;99690.59;5116660;28;20073;-75
2022/01/17 00:15:24;;;;;;;32.42;15.90;;;;;;;5.30;64.15;99687.97;5111362;28;20507;-77
2022/01/17 00:18:08;;;;;;;32.95;20.42;;;;;;;5.28;64.10;99671.53;5111534;28;20044;-77
2022/01/17 00:20:35;;;;;;;37.50;17.75;;;;;;;5.25;64.23;99663.84;5113035;28;20617;-76
2022/01/17 00:23:02;;;;;;;37.63;21.25;;;;;;;5.25;64.35;99672.53;5111233;28;20080;-77
2022/01/17 00:25:29;;;;;;;30.60;16.25;;;;;;;5.29;64.37;99665.34;5108878;28;20079;-78
2022/01/17 00:27:58;;;;;;;33.88;14.82;;;;;;;5.37;64.14;99660.50;5111251;28;20479;-74
2022/01/17 00:30:25;;;;;;;39.38;25.55;;;;;;;5.37;64.22;99647.41;5109221;28;20050;-75
2022/01/17 00:32:52;;;;;;;37.15;19.85;;;;;;;5.30;64.55;99648.72;5107004;28;20046;-75
2022/01/17 00:35:19;;;;;;;38.67;20.77;;;;;;;5.33;64.40;99643.25;5107540;28;20057;-74
2022/01/17 00:37:46;;;;;;;42.33;23.88;;;;;;;5.38;64.42;99638.59;5106813;28;20039;-74
2022/01/17 00:40:13;;;;;;;40.88;23.15;;;;;;;5.40;64.51;99633.25;5106370;28;20052;-75
2022/01/17 00:42:42;;;;;;;44.33;29.17;;;;;;;5.34;64.46;99624.84;5106485;28;20578;-74
2022/01/17 00:45:13;;;;;;;45.97;30.42;;;;;;;5.33;64.85;99622.31;5108046;28;20048;-75
2022/01/17 00:47:40;;;;;;;38.67;19.98;;;;;;;5.43;64.63;99633.09;5106667;28;20620;-75
2022/01/17 00:50:09;;;;;;;47.30;27.92;;;;;;;5.40;64.61;99623.63;5108276;28;20117;-76
2022/01/17 00:52:36;;;;;;;49.40;34.53;;;;;;;5.37;64.69;99615.97;5106196;28;20090;-74
2022/01/17 00:55:04;;;;;;;49.65;33.03;;;;;;;5.38;64.62;99625.50;5105936;28;20174;-75
2022/01/17 00:57:31;;;;;;;44.28;18.80;;;;;;;5.44;64.51;99613.81;5105858;28;20051;-76
2022/01/17 00:59:58;;;;;;;42.22;25.95;;;;;;;5.48;64.40;99620.56;5107439;28;20048;-75
2022/01/17 01:02:27;;;;;;;43.30;21.95;;;;;;;5.49;64.43;99630.06;5108853;28;20055;-75
2022/01/17 01:04:54;;;;;;;44.60;26.90;;;;;;;5.50;64.27;99624.75;5111405;28;20107;-77
2022/01/17 01:07:21;;;;;;;49.10;34.90;;;;;;;5.51;64.26;99629.06;5110732;28;20640;-76
2022/01/17 01:09:58;;;;;;;45.60;24.95;;;;;;;5.53;64.16;99627.19;5113313;28;20621;-75
2022/01/17 01:12:25;;;;;;;44.97;34.05;;;;;;;5.59;64.00;99617.28;5110975;28;20043;-75
2022/01/17 01:14:52;;;;;;;38.35;22.80;;;;;;;5.57;64.07;99614.75;5110811;28;20047;-76
2022/01/17 01:17:32;;;;;;;45.92;23.20;;;;;;;5.67;63.77;99612.38;5110989;28;20259;-74
2022/01/17 01:20:12;;;;;;;43.63;30.67;;;;;;;5.68;63.82;99611.47;5111244;28;20062;-75
2022/01/17 01:28:08;;;;;;;38.13;19.17;;;;;;;5.69;63.81;99579.94;5111590;28;20051;-76
2022/01/17 01:30:41;;;;;;;41.05;25.60;;;;;;;5.69;63.91;99565.97;5112490;28;20083;-75
2022/01/17 01:33:09;;;;;;;51.20;30.55;;;;;;;5.65;64.16;99575.78;5112348;28;20055;-77
2022/01/17 01:35:45;;;;;;;32.58;18.95;;;;;;;5.70;64.08;99558.00;5111117;28;20078;-77
2022/01/17 01:38:13;;;;;;;56.40;39.63;;;;;;;5.64;64.08;99542.69;5081065;28;20105;-75
2022/01/17 01:40:40;;;;;;;42.35;26.02;;;;;;;5.67;64.15;99541.66;5072109;28;20143;-75
2022/01/17 01:43:08;;;;;;;37.53;18.77;;;;;;;5.71;64.07;99530.06;5073257;28;20048;-77
2022/01/17 01:45:35;;;;;;;34.42;21.33;;;;;;;5.73;63.99;99525.56;5076609;28;20506;-75
2022/01/17 01:48:02;;;;;;;41.67;27.52;;;;;;;5.63;64.36;99532.31;5072504;28;20739;-76
2022/01/17 01:50:29;;;;;;;42.75;21.73;;;;;;;5.64;64.42;99513.03;5070938;28;20048;-76
2022/01/17 01:52:57;;;;;;;49.85;28.30;;;;;;;5.60;64.68;99512.41;5070418;28;20102;-73
2022/01/17 01:55:24;;;;;;;50.03;36.50;;;;;;;5.54;64.98;99513.59;5069482;28;20048;-74
2022/01/17 01:57:52;;;;;;;51.78;34.05;;;;;;;5.54;65.00;99505.75;5069747;28;20048;-75
2022/01/17 02:00:20;;;;;;;40.25;23.83;;;;;;;5.61;64.96;99505.38;5069913;28;20048;-74
2022/01/17 02:02:49;;;;;;;37.05;18.90;;;;;;;5.58;64.86;99502.94;5070179;28;20136;-74
2022/01/17 02:05:16;;;;;;;40.13;22.00;;;;;;;5.61;65.03;99503.59;5069580;28;20087;-76
2022/01/17 02:07:45;;;;;;;37.47;21.23;;;;;;;5.67;64.84;99494.47;5070831;28;20044;-74
2022/01/17 02:10:14;;;;;;;36.88;21.48;;;;;;;5.62;65.02;99500.03;5069071;28;20048;-74
2022/01/17 02:12:41;;;;;;;45.10;26.35;;;;;;;5.63;64.99;99493.00;5069448;28;20197;-77
2022/01/17 02:15:13;;;;;;;41.53;21.08;;;;;;;5.74;64.46;99493.16;5069857;28;20065;-75
2022/01/17 02:17:45;;;;;;;31.55;16.10;;;;;;;5.81;64.47;99483.94;5070890;28;20223;-75
2022/01/17 02:20:20;;;;;;;37.05;23.65;;;;;;;5.83;64.63;99476.00;5068615;28;20125;-76
2022/01/17 02:22:48;;;;;;;38.60;20.95;;;;;;;5.83;64.33;99470.75;5069468;28;20495;-75
2022/01/17 02:25:15;;;;;;;33.78;20.52;;;;;;;5.85;64.40;99482.84;5067207;28;20076;-76
2022/01/17 02:27:43;;;;;;;45.70;29.70;;;;;;;5.74;64.88;99466.94;5067416;28;20049;-75
2022/01/17 02:30:13;;;;;;;41.50;25.98;;;;;;;5.77;64.84;99473.78;5068865;28;20750;-74
2022/01/17 02:32:41;;;;;;;38.63;24.80;;;;;;;5.76;64.68;99441.47;5068051;28;20052;-73
2022/01/17 02:35:12;;;;;;;40.90;26.23;;;;;;;5.76;64.63;99454.59;5069456;28;20471;-75
2022/01/17 02:37:41;;;;;;;36.97;24.70;;;;;;;5.79;64.45;99445.69;5072170;28;20049;-71
2022/01/17 02:40:09;;;;;;;32.15;18.65;;;;;;;5.88;64.42;99443.28;5090557;28;20143;-76
2022/01/17 02:42:37;;;;;;;38.72;27.98;;;;;;;5.92;64.13;99441.31;5088768;28;20048;-77
2022/01/17 02:45:11;;;;;;;31.10;18.45;;;;;;;6.03;63.94;99428.38;5091298;28;20048;-77
2022/01/17 02:47:39;;;;;;;35.70;20.23;;;;;;;6.09;63.77;99422.72;5090338;28;20113;-76
2022/01/17 02:50:07;;;;;;;31.48;19.80;;;;;;;6.08;63.78;99414.97;5091821;28;20059;-77
2022/01/17 02:52:34;;;;;;;42.95;22.40;;;;;;;6.07;63.62;99401.03;5093454;28;20075;-76
2022/01/17 02:55:03;;;;;;;39.83;25.15;;;;;;;6.08;63.55;99400.06;5090706;28;20051;-76
2022/01/17 02:57:33;;;;;;;29.38;17.38;;;;;;;6.21;63.20;99373.00;5097307;28;20067;-78
2022/01/17 03:00:00;;;;;;;27.50;14.57;;;;;;;6.23;62.75;99382.47;5089464;28;20058;-76
2022/01/17 03:02:27;;;;;;;32.47;19.98;;;;;;;6.25;62.69;99385.81;5088109;28;20070;-76
2022/01/17 03:04:54;;;;;;;26.48;16.70;;;;;;;6.35;62.58;99386.00;5052044;28;20044;-75
2022/01/17 03:07:21;;;;;;;26.45;18.70;;;;;;;6.39;62.46;99387.50;5088473;28;20052;-77
2022/01/17 03:10:01;;;;;;;26.95;15.70;;;;;;;6.46;62.24;99386.13;5093682;28;20740;-75
2022/01/17 03:12:30;;;;;;;34.80;23.23;;;;;;;6.41;61.81;99354.13;5088805;28;20057;-72
2022/01/17 03:14:57;;;;;;;26.35;15.90;;;;;;;6.51;61.54;99364.81;5088061;28;20135;-77
2022/01/17 03:17:25;;;;;;;26.13;16.60;;;;;;;6.56;61.81;99361.88;5087439;28;20059;-77
2022/01/17 03:19:52;;;;;;;28.98;16.42;;;;;;;6.52;61.23;99353.38;5088290;28;20119;-76
2022/01/17 03:22:19;;;;;;;26.15;17.75;;;;;;;6.53;61.11;99352.41;5087383;28;20048;-72
2022/01/17 03:24:46;;;;;;;28.67;18.88;;;;;;;6.59;61.09;99346.75;5087396;28;20079;-77
2022/01/17 03:27:13;;;;;;;26.08;15.95;;;;;;;6.64;60.89;99344.63;5087988;28;20052;-76
2022/01/17 03:29:43;;;;;;;27.73;20.20;;;;;;;6.62;60.77;99356.19;5088944;28;20482;-77
2022/01/17 03:32:12;;;;;;;22.85;14.30;;;;;;;6.66;60.76;99347.13;5052620;28;20075;-77
2022/01/17 03:34:39;;;;;;;26.08;19.83;;;;;;;6.63;60.48;99342.13;5089926;28;20514;-79
2022/01/17 03:37:07;;;;;;;30.70;20.60;;;;;;;6.64;60.42;99342.00;5077189;28;20048;-78
2022/01/17 03:39:34;;;;;;;25.13;14.50;;;;;;;6.73;60.42;99334.44;5055841;28;20528;-75
2022/01/17 03:42:02;;;;;;;24.27;17.45;;;;;;;6.77;60.34;99320.13;5086572;28;20483;-75
2022/01/17 03:44:29;;;;;;;25.88;19.67;;;;;;;6.70;60.13;99307.47;5086174;28;20079;-75
2022/01/17 03:46:57;;;;;;;25.63;19.55;;;;;;;6.66;60.01;99316.50;5086436;28;20043;-76
2022/01/17 03:49:24;;;;;;;30.40;21.13;;;;;;;6.70;59.97;99304.84;5087866;28;20104;-78
2022/01/17 03:51:51;;;;;;;24.08;12.82;;;;;;;6.76;59.88;99321.09;5088182;28;20083;-77
2022/01/17 03:54:18;;;;;;;26.10;16.30;;;;;;;6.79;59.75;99302.50;5086160;28;20048;-75
2022/01/17 03:56:46;;;;;;;23.48;16.70;;;;;;;6.86;59.84;99304.59;5087656;28;20048;-77
2022/01/17 03:59:13;;;;;;;29.63;16.83;;;;;;;6.83;59.66;99298.72;5086986;28;20604;-76
2022/01/17 04:01:40;;;;;;;28.20;17.77;;;;;;;6.87;59.90;99284.41;5086742;28;20113;-75
2022/01/17 04:04:09;;;;;;;19.40;13.65;;;;;;;6.91;59.66;99285.03;5088189;28;20173;-72
2022/01/17 04:06:36;;;;;;;27.00;18.50;;;;;;;6.92;59.48;99274.41;5086958;28;20415;-77
2022/01/17 04:09:03;;;;;;;23.60;17.10;;;;;;;6.94;59.41;99269.06;5087062;28;20135;-76
2022/01/17 04:11:30;;;;;;;23.25;16.83;;;;;;;6.90;59.12;99257.94;5087654;28;20050;-76
2022/01/17 04:13:57;;;;;;;21.42;12.52;;;;;;;6.96;59.34;99243.53;5086699;28;20113;-78
2022/01/17 04:16:24;;;;;;;23.48;17.55;;;;;;;6.92;59.21;99232.41;5087005;28;20075;-77
2022/01/17 04:18:52;;;;;;;16.27;11.70;;;;;;;6.92;59.08;99234.22;5085704;28;20147;-77
2022/01/17 04:21:22;;;;;;;20.20;11.90;;;;;;;6.98;59.03;99226.69;5085945;28;20442;-73
2022/01/17 04:23:50;;;;;;;19.48;14.20;;;;;;;6.95;58.91;99213.81;5069089;28;20084;-75
2022/01/17 04:26:17;;;;;;;20.40;13.82;;;;;;;6.91;58.57;99212.34;5084807;28;20086;-74
2022/01/17 04:28:46;;;;;;;18.55;10.73;;;;;;;6.99;58.69;99196.06;5086426;28;20151;-79
2022/01/17 04:31:13;;;;;;;21.58;15.57;;;;;;;6.98;58.54;99189.13;5086585;28;20123;-73
2022/01/17 04:33:41;;;;;;;18.55;13.55;;;;;;;7.00;58.68;99188.03;5086891;28;20248;-75
2022/01/17 04:36:12;;;;;;;19.05;13.02;;;;;;;7.04;58.73;99186.03;5070747;28;20055;-76
2022/01/17 04:38:40;;;;;;;19.58;11.73;;;;;;;7.02;58.75;99167.78;5088277;28;20454;-76
2022/01/17 04:41:14;;;;;;;16.70;10.40;;;;;;;7.01;58.90;99171.34;5089115;28;20583;-76
2022/01/17 04:43:57;;;;;;;19.58;14.63;;;;;;;6.90;58.84;99171.31;5087910;28;20107;-76
2022/01/17 04:46:24;;;;;;;21.05;15.77;;;;;;;6.84;59.13;99177.00;5093190;28;20181;-77
2022/01/17 04:48:51;;;;;;;18.58;13.23;;;;;;;6.83;59.28;99185.84;5093655;28;20048;-73
2022/01/17 04:51:18;;;;;;;19.48;12.20;;;;;;;6.83;59.41;99175.34;5092202;28;20467;-77
2022/01/17 04:54:04;;;;;;;21.10;15.35;;;;;;;6.82;59.52;99145.63;5076882;28;20047;-75
2022/01/17 04:56:31;;;;;;;16.45;10.57;;;;;;;6.91;59.24;99146.72;5095165;28;20171;-76
2022/01/17 04:58:59;;;;;;;21.00;13.70;;;;;;;6.91;59.25;99151.16;5094382;28;20081;-76
2022/01/17 05:01:26;;;;;;;26.63;16.92;;;;;;;6.83;59.48;99149.94;5097519;28;20101;-77
2022/01/17 05:03:53;;;;;;;23.35;15.45;;;;;;;6.82;59.57;99148.25;5094837;28;20044;-74
2022/01/17 05:06:20;;;;;;;25.58;16.25;;;;;;;6.83;59.55;99125.50;5102573;28;20203;-74
2022/01/17 05:08:49;;;;;;;18.30;10.30;;;;;;;6.86;59.58;99135.75;5108920;28;20092;-75
2022/01/17 05:11:16;;;;;;;20.80;16.35;;;;;;;6.80;59.46;99139.66;5110907;28;20199;-74
2022/01/17 05:13:48;;;;;;;19.40;12.13;;;;;;;6.85;59.32;99123.59;5071755;28;20050;-78
2022/01/17 05:16:16;;;;;;;17.17;12.98;;;;;;;6.93;59.20;99139.56;5100528;28;20055;-77
2022/01/17 05:21:28;;;;;;;15.30;10.45;;;;;;;6.89;58.98;99128.47;5063530;28;20087;-75
2022/01/17 05:23:57;;;;;;;20.90;13.63;;;;;;;6.84;58.99;99114.03;5091821;28;20062;-73
2022/01/17 05:26:24;;;;;;;14.35;10.00;;;;;;;6.94;58.85;99108.94;5090310;28;20055;-73
2022/01/17 05:28:51;;;;;;;15.75;10.25;;;;;;;6.90;58.94;99097.84;5097175;28;20135;-75
2022/01/17 05:31:18;;;;;;;16.13;10.77;;;;;;;6.88;58.97;99094.50;5095654;28;20083;-78
2022/01/17 05:33:45;;;;;;;20.40;12.70;;;;;;;6.90;58.92;99087.34;5091867;28;20097;-79
2022/01/17 05:36:12;;;;;;;19.75;11.52;;;;;;;6.99;58.71;99067.44;5094945;28;20051;-77
2022/01/17 05:38:39;;;;;;;18.23;14.52;;;;;;;6.93;58.75;99049.50;5094401;28;20507;-71
2022/01/17 05:41:08;;;;;;;16.45;13.02;;;;;;;6.96;58.64;99055.34;5098061;28;20164;-76
2022/01/17 05:43:35;;;;;;;15.93;9.90;;;;;;;7.08;58.43;99043.91;5097979;28;20052;-74
2022/01/17 05:46:03;;;;;;;17.55;14.88;;;;;;;7.04;58.26;99058.25;5110370;28;20103;-73
2022/01/17 05:48:30;;;;;;;14.75;9.65;;;;;;;7.13;58.41;99061.09;5110035;28;20061;-70
2022/01/17 05:50:57;;;;;;;15.55;8.95;;;;;;;7.13;58.27;99040.94;5112372;28;20067;-69
2022/01/17 05:53:24;;;;;;;16.00;11.30;;;;;;;7.07;58.37;99057.97;5101159;28;20069;-78
2022/01/17 05:55:51;;;;;;;20.10;15.73;;;;;;;7.08;58.39;99033.41;5075580;28;20089;-72
2022/01/17 05:58:19;;;;;;;22.58;15.07;;;;;;;7.07;58.56;99036.97;5089351;28;20050;-74
2022/01/17 06:00:46;;;;;;;14.98;12.23;;;;;;;7.03;58.67;99011.09;5088500;28;20047;-77
2022/01/17 06:03:13;;;;;;;16.85;12.82;;;;;;;7.01;58.68;99000.72;5096038;28;20507;-71
2022/01/17 06:05:40;;;;;;;16.98;15.27;;;;;;;6.97;58.72;98977.44;5094314;28;20131;-72
2022/01/17 06:08:07;;;;;;;17.80;13.20;;;;;;;6.96;58.68;98981.03;5097064;28;20101;-78
2022/01/17 06:10:34;;;;;;;12.15;7.88;;;;;;;7.09;58.49;98992.22;5103935;28;20544;-73
2022/01/17 06:13:02;;;;;;;18.33;12.55;;;;;;;7.02;58.48;98994.50;5109949;28;20055;-70
2022/01/17 06:15:31;;;;;;;17.80;14.00;;;;;;;7.07;58.54;98981.00;5107358;28;20051;-76
2022/01/17 06:17:58;;;;;;;16.92;10.30;;;;;;;7.07;58.43;98978.38;5089602;28;20048;-74
2022/01/17 06:20:27;;;;;;;15.95;10.30;;;;;;;7.05;58.43;98960.13;5106370;28;20065;-70
2022/01/17 06:22:54;;;;;;;18.85;7.60;;;;;;;7.04;58.14;98953.22;5105154;28;20384;-71
2022/01/17 06:25:21;;;;;;;14.50;10.13;;;;;;;7.15;58.17;98943.63;5103165;28;20047;-72
2022/01/17 06:27:48;;;;;;;15.63;11.48;;;;;;;7.00;58.40;98943.06;5097436;28;20479;-70
2022/01/17 06:30:15;;;;;;;17.27;12.18;;;;;;;7.00;58.16;98937.81;5091031;28;20577;-78
2022/01/17 06:32:44;;;;;;;15.65;8.57;;;;;;;7.07;58.18;98929.31;5088880;28;20391;-78
2022/01/17 06:35:12;;;;;;;19.85;12.98;;;;;;;7.15;58.12;98935.75;5089265;28;20097;-74
2022/01/17 06:37:40;;;;;;;12.70;9.60;;;;;;;7.10;58.16;98919.56;5087708;28;20480;-78
2022/01/17 06:40:23;;;;;;;15.15;8.57;;;;;;;7.05;58.03;98910.25;5089552;28;20086;-77
2022/01/17 06:42:51;;;;;;;15.75;9.05;;;;;;;7.12;57.91;98899.28;5070413;28;20052;-77
2022/01/17 06:45:21;;;;;;;13.93;6.82;;;;;;;7.18;57.82;98880.38;5087383;28;20504;-74
2022/01/17 06:47:50;;;;;;;10.35;5.82;;;;;;;7.22;57.57;98866.03;5088520;28;20139;-76
2022/01/17 06:50:18;;;;;;;12.40;8.32;;;;;;;7.12;57.78;98862.50;5069361;28;20717;-76
2022/01/17 06:52:46;;;;;;;13.05;7.18;;;;;;;7.18;57.77;98860.19;5051080;28;20501;-78
2022/01/17 06:55:13;;;;;;;13.38;9.93;;;;;;;7.14;58.23;98863.22;5086637;28;20407;-76
2022/01/17 06:57:42;;;;;;;13.32;8.13;;;;;;;7.11;58.58;98850.31;5088099;28;20095;-79
2022/01/17 07:00:12;;;;;;;17.15;9.38;;;;;;;6.97;59.30;98836.53;5086459;28;20040;-76
2022/01/17 07:02:40;;;;;;;8.70;5.68;;;;;;;6.89;59.56;98846.78;5086660;28;20105;-77
2022/01/17 07:05:09;;;;;;;13.75;7.13;;;;;;;6.92;59.74;98838.69;5086383;28;20043;-78
2022/01/17 07:07:37;;;;;;;13.25;9.55;;;;;;;6.85;60.06;98842.75;5085840;28;20044;-74
2022/01/17 07:10:05;;;;;;;10.45;5.10;;;;;;;6.89;59.75;98855.50;5088223;28;20048;-77
2022/01/17 07:12:35;;;;;;;10.70;7.82;;;;;;;6.85;60.01;98884.75;5086405;28;20047;-76
2022/01/17 07:15:02;;;;;;;12.93;8.60;;;;;;;6.85;60.04;98869.00;5085451;28;20113;-77
2022/01/17 07:17:29;;;;;;;16.00;10.95;;;;;;;6.73;60.43;98902.28;5085917;28;20559;-74
2022/01/17 07:19:57;;;;;;;19.00;12.60;;;;;;;6.78;60.43;98907.19;5086545;28;20051;-77
2022/01/17 07:22:27;;;;;;;13.55;7.25;;;;;;;6.81;60.63;98881.53;5086614;28;20048;-78
2022/01/17 07:24:56;;;;;;;12.00;6.18;;;;;;;6.85;60.61;98853.25;5084582;28;20067;-76
2022/01/17 07:27:24;;;;;;;14.52;6.20;;;;;;;6.88;60.38;98832.03;5098592;28;20079;-80
2022/01/17 07:29:51;;;;;;;14.18;7.57;;;;;;;6.82;60.52;98829.88;5087805;28;20130;-78
2022/01/17 07:32:18;;;;;;;15.32;9.52;;;;;;;6.76;61.07;98804.97;5088981;28;20067;-77
2022/01/17 07:34:45;;;;;;;13.20;8.50;;;;;;;6.69;61.57;98780.16;5086600;28;20074;-77
2022/01/17 07:37:12;;;;;;;12.80;6.93;;;;;;;6.60;62.05;98776.47;5087097;28;20097;-78
2022/01/17 07:39:43;;;;;;;14.27;8.45;;;;;;;6.52;62.42;98778.91;5086274;28;20106;-76
2022/01/17 07:42:12;;;;;;;18.35;11.48;;;;;;;6.46;62.56;98777.59;5085056;28;20048;-74
2022/01/17 07:44:40;;;;;;;13.77;10.68;;;;;;;6.41;62.95;98764.00;5086852;28;20185;-76
2022/01/17 07:47:15;;;;;;;14.43;8.70;;;;;;;6.40;62.89;98757.09;5086481;28;20051;-76
2022/01/17 07:49:44;;;;;;;12.30;5.75;;;;;;;6.50;62.60;98762.44;5085406;28;20044;-75
2022/01/17 07:52:12;;;;;;;19.17;10.63;;;;;;;6.40;63.10;98743.16;5085917;28;20599;-77
2022/01/17 07:54:44;;;;;;;12.35;6.43;;;;;;;6.36;63.31;98736.50;5083602;28;20097;-78
2022/01/17 07:57:13;;;;;;;16.45;11.10;;;;;;;6.26;63.49;98716.22;5085921;28;20529;-74
2022/01/17 07:59:41;;;;;;;12.20;8.13;;;;;;;6.32;63.23;98712.28;5085810;28;20075;-78
2022/01/17 08:02:08;;;;;;;11.48;6.00;;;;;;;6.36;63.35;98705.03;5086347;28;20260;-78
2022/01/17 08:04:35;;;;;;;14.35;5.57;;;;;;;6.32;63.25;98704.44;5085775;28;20105;-76
2022/01/17 08:07:04;;;;;;;13.65;7.47;;;;;;;6.15;63.84;98676.91;5084014;28;20054;-78
2022/01/17 08:09:33;;;;;;;14.15;8.25;;;;;;;6.17;63.98;98689.91;5084698;28;20114;-77
2022/01/17 08:12:03;;;;;;;11.38;6.60;;;;;;;6.21;64.19;98665.97;5083782;28;20620;-76
2022/01/17 08:14:31;;;;;;;10.88;5.85;;;;;;;6.27;64.09;98648.91;5085208;28;20044;-77
2022/01/17 08:16:58;;;;;;;9.02;4.75;;;;;;;6.28;64.08;98655.78;5083890;28;20101;-75
2022/01/17 08:19:26;;;;;;;12.93;6.18;;;;;;;6.28;64.16;98650.53;5089249;28;20059;-77
2022/01/17 08:21:53;;;;;;;8.98;5.03;;;;;;;6.31;63.83;98655.56;5053196;28;20400;-77
2022/01/17 08:24:21;;;;;;;11.40;7.85;;;;;;;6.28;63.67;98672.38;5090061;28;20087;-76
2022/01/17 08:26:50;;;;;;;11.73;7.10;;;;;;;6.43;63.38;98674.72;5090982;28;20496;-80
2022/01/17 08:29:20;;;;;;;10.55;6.88;;;;;;;6.35;63.52;98656.97;5090663;28;20613;-77
2022/01/17 08:31:48;;;;;;;9.20;4.68;;;;;;;6.47;63.43;98655.97;5086728;28;20047;-77
2022/01/17 08:34:17;;;;;;;11.13;6.60;;;;;;;6.49;63.28;98633.06;5073786;28;20511;-74
2022/01/17 08:36:48;;;;;;;9.57;6.80;;;;;;;6.32;63.23;98610.84;5091243;28;20048;-73
2022/01/17 08:39:16;;;;;;;10.45;7.15;;;;;;;6.49;62.91;98624.38;5090672;28;20072;-75
2022/01/17 08:41:47;;;;;;;8.90;6.15;;;;;;;6.45;62.74;98617.72;5096796;28;20059;-75
2022/01/17 08:44:15;;;;;;;10.05;6.22;;;;;;;6.51;62.09;98593.63;5093443;28;20117;-77
2022/01/17 08:46:44;;;;;;;9.15;4.35;;;;;;;6.54;62.35;98603.03;5089969;28;20082;-74
2022/01/17 08:49:12;;;;;;;6.93;4.95;;;;;;;6.67;62.18;98611.56;5091620;28;20047;-79
2022/01/17 08:51:40;;;;;;;5.88;3.88;;;;;;;6.69;62.07;98591.25;5095493;28;20064;-78
2022/01/17 08:54:08;;;;;;;8.10;4.07;;;;;;;6.78;61.86;98621.16;5088630;28;20044;-79
2022/01/17 08:56:35;;;;;;;9.10;6.20;;;;;;;6.70;62.03;98596.38;5089813;28;20780;-76
2022/01/17 08:59:03;;;;;;;9.30;5.93;;;;;;;6.64;62.49;98583.75;5088994;28;20070;-74
2022/01/17 09:01:32;;;;;;;9.68;5.78;;;;;;;6.62;62.24;98563.88;5089297;28;20052;-74
2022/01/17 09:04:02;;;;;;;7.00;4.90;;;;;;;6.73;62.46;98586.59;5090383;28;20047;-75
2022/01/17 09:06:32;;;;;;;6.63;5.00;;;;;;;6.69;62.70;98601.75;5096060;28;20075;-75
2022/01/17 09:09:00;;;;;;;7.25;3.83;;;;;;;6.60;63.24;98608.59;5088772;28;20051;-74
2022/01/17 09:11:28;;;;;;;8.82;5.10;;;;;;;6.58;63.31;98609.69;5087522;28;20487;-75
2022/01/17 09:13:55;;;;;;;8.57;4.95;;;;;;;6.73;62.89;98602.34;5087735;28;20048;-76
2022/01/17 09:16:22;;;;;;;10.00;5.15;;;;;;;6.82;62.54;98580.56;5094654;28;20044;-75
2022/01/17 09:18:50;;;;;;;9.23;4.38;;;;;;;6.84;62.43;98587.38;5099002;28;20063;-77
2022/01/17 09:21:19;;;;;;;9.30;5.88;;;;;;;6.64;62.90;98589.00;5072172;28;20063;-75
2022/01/17 09:23:46;;;;;;;9.35;5.00;;;;;;;6.53;63.45;98620.53;5091242;28;20048;-78
2022/01/17 09:26:13;;;;;;;9.00;4.10;;;;;;;6.61;63.47;98607.66;5088182;28;20122;-74
2022/01/17 09:28:41;;;;;;;10.75;7.93;;;;;;;6.35;64.49;98772.34;5089358;28;20056;-73
2022/01/17 09:31:08;;;;;;;119.78;14.57;;;;;;;4.76;62.34;98895.88;5085287;28;20064;-75
2022/01/17 09:33:35;;;;;;;65.05;9.90;;;;;;;3.81;65.72;98901.41;5084911;28;20097;-72
2022/01/17 09:36:03;;;;;;;55.63;6.05;;;;;;;3.13;68.20;98909.31;5084649;28;20051;-70
2022/01/17 09:38:33;;;;;;;52.88;5.93;;;;;;;2.82;69.58;98924.28;5084922;28;20050;-71
2022/01/17 09:41:01;;;;;;;7.40;1.65;;;;;;;2.74;70.36;98929.13;5085970;28;20498;-74
2022/01/17 10:03:48;;;;;;;14.85;9.13;;;;;;;2.75;72.35;98957.72;5079854;27;20466;-70
2022/01/17 10:06:15;;;;;;;18.00;10.10;;;;;;;2.85;71.36;98965.84;5061265;28;20127;-70
2022/01/17 10:08:42;;;;;;;17.98;11.93;;;;;;;2.84;70.80;98961.53;5061008;28;20180;-70
2022/01/17 10:11:14;;;;;;;21.20;15.70;;;;;;;2.79;71.25;98956.63;5060961;28;20538;-71
2022/01/17 10:13:45;;;;;;;18.85;10.98;;;;;;;2.84;71.01;98951.94;5063887;28;20204;-70
2022/01/17 10:16:14;;;;;;;20.70;14.70;;;;;;;2.85;70.99;98952.78;5057345;28;20500;-72
2022/01/17 10:18:43;;;;;;;22.25;14.20;;;;;;;2.91;71.04;98967.22;5061335;28;20063;-70
2022/01/17 10:21:16;;;;;;;21.65;15.00;;;;;;;2.93;70.85;98947.09;5052004;28;20567;-71
2022/01/17 10:24:11;;;;;;;28.27;16.95;;;;;;;2.93;70.75;98960.97;5057871;28;20045;-71
2022/01/17 10:34:56;;;;;;;;;;;;;;;2.89;69.59;98996.00;5072951;28;20063;-72
2022/01/17 10:37:27;;;;;;;11.80;7.43;;;;;;;2.67;69.88;98999.06;5066121;28;19940;-70
2022/01/17 10:39:57;;;;;;;11.88;8.18;;;;;;;2.63;69.53;98974.97;5073921;28;20435;-73
2022/01/17 10:42:29;;;;;;;11.18;6.15;;;;;;;2.62;69.98;98968.06;5069850;28;20051;-73
2022/01/17 10:45:02;;;;;;;11.95;7.40;;;;;;;2.67;69.78;98946.94;5076466;28;20108;-78
2022/01/17 10:47:30;;;;;;;5.60;3.25;;;;;;;2.64;69.43;98941.91;5071737;28;20048;-71
2022/01/17 10:49:59;;;;;;;5.38;3.05;;;;;;;2.78;69.57;98965.38;5071332;28;20095;-74
2022/01/17 10:52:34;;;;;;;5.82;3.20;;;;;;;2.89;69.21;98969.09;5075899;28;20036;-77
2022/01/17 10:55:07;;;;;;;11.45;7.38;;;;;;;2.91;68.84;98970.66;5054395;28;20105;-72
2022/01/17 10:57:35;;;;;;;11.20;5.93;;;;;;;2.99;68.84;98980.63;5056939;28;20080;-70
2022/01/17 11:00:09;;;;;;;10.60;4.93;;;;;;;2.97;68.20;99000.75;5057501;28;20037;-76
2022/01/17 11:02:37;;;;;;;8.63;4.38;;;;;;;2.95;67.85;99000.81;5062550;28;20049;-70
2022/01/17 11:05:06;;;;;;;5.10;2.90;;;;;;;2.90;67.74;99009.88;5064381;28;20041;-73
2022/01/17 11:07:43;;;;;;;7.13;4.53;;;;;;;2.93;67.97;99030.56;5062935;28;20209;-71
2022/01/17 11:10:29;;;;;;;9.15;4.55;;;;;;;3.03;67.98;99053.38;5061134;28;20149;-78
2022/01/17 11:12:58;;;;;;;7.80;4.50;;;;;;;3.15;67.33;99040.50;5064922;28;20054;-76
2022/01/17 11:15:26;;;;;;;11.23;5.55;;;;;;;3.16;67.24;99037.81;5064492;28;20095;-72
2022/01/17 11:17:56;;;;;;;7.43;4.43;;;;;;;3.14;66.64;99039.69;5054798;28;20037;-72
2022/01/17 11:20:28;;;;;;;7.85;4.63;;;;;;;3.20;65.70;99034.06;5048266;28;20045;-77
2022/01/17 11:22:59;;;;;;;9.05;5.03;;;;;;;3.27;66.01;99047.59;5048159;28;20051;-72
2022/01/17 11:25:29;;;;;;;7.15;5.03;;;;;;;3.17;66.01;99051.69;5049515;28;20081;-71
2022/01/17 11:27:56;;;;;;;12.80;6.70;;;;;;;3.10;66.34;99053.84;5049808;28;20483;-71
2022/01/17 11:30:24;;;;;;;7.03;4.35;;;;;;;2.97;64.80;99050.28;5046659;28;20080;-76
2022/01/17 11:32:54;;;;;;;12.77;6.30;;;;;;;2.85;65.39;99063.16;5051927;28;20057;-70
2022/01/17 11:35:21;;;;;;;17.70;9.27;;;;;;;2.87;65.49;99078.72;5055250;28;20084;-73
2022/01/17 11:37:53;;;;;;;19.08;8.45;;;;;;;2.79;64.04;99073.09;5053226;28;20051;-71
2022/01/17 11:40:28;;;;;;;10.40;6.65;;;;;;;2.89;64.33;99082.06;5058593;28;20108;-74
2022/01/17 11:42:55;;;;;;;12.07;8.32;;;;;;;2.93;63.57;99067.06;5060320;28;20277;-73
2022/01/17 11:45:37;;;;;;;13.25;7.38;;;;;;;3.02;63.89;99076.94;5059356;28;20108;-72
2022/01/17 11:48:07;;;;;;;10.07;6.22;;;;;;;3.04;63.43;99077.69;5050981;28;20124;-71
2022/01/17 11:50:42;;;;;;;11.90;5.55;;;;;;;3.03;62.76;99089.06;5047766;28;20055;-71
2022/01/17 11:53:48;;;;;;;8.85;5.68;;;;;;;3.16;62.63;99076.94;5046398;28;20136;-72
2022/01/17 11:56:18;;;;;;;;;;;;;;;3.24;61.29;99093.00;5046743;28;20053;-72
2022/01/17 11:58:49;;;;;;;10.45;6.05;;;;;;;3.13;62.43;99131.91;5056029;28;20015;-75
2022/01/17 12:01:20;;;;;;;10.75;6.47;;;;;;;3.25;61.89;99152.06;5059767;28;20523;-71
2022/01/17 12:03:49;;;;;;;13.30;6.82;;;;;;;3.29;61.72;99144.88;5021129;28;20052;-70
2022/01/17 12:06:25;;;;;;;10.32;5.57;;;;;;;3.29;60.71;99151.88;5021065;28;20145;-74
2022/01/17 12:09:22;;;;;;;10.13;6.80;;;;;;;3.41;59.89;99148.53;5011762;28;20829;-72
2022/01/17 12:11:52;;;;;;;15.73;6.18;;;;;;;3.52;60.76;99169.59;5009875;28;20150;-71
2022/01/17 12:14:30;;;;;;;12.35;6.88;;;;;;;3.46;61.30;99180.44;5009956;28;20077;-71